Accueil
METAR-TAF:

METAR-TAF

Aéroports :

Aéroport international de Maiduguri

Maiduguri, Nigeria

latitude: 11-51N, longitude: 013-05E, altitude: 354 m

METAR: absent

Heure: 21:39 (20:39 UTC)

Prévision

Le bulletin a été fait il y a 3 heures et 39 minutes, à 17:00 UTC
Prévision valable du 27 à 18 UTC au 28 à 24 UTC
Vent 8 kt de nord-est
Visibilité 10 km ou plus
pas de nuages en-dessous de 1500 mètres et pas de cumulonimbus.

TAF: DNMA 271700Z 2718/2824 05008KT CAVOK

Observations et prévisions météorologiques de plus de 4000 aéroports (messages METAR et TAF).

Les stations disponibles sont représentées par des disques jaunes et rouges sur la carte.

Passer la souris dessus pour voir le nom de la station.

Cliquer dessus pour voir les observations et prévisions météorologiques.

Pour changer de carte: cliquez sur les boutons verts avec une croix noire pour zoomer, sur le bouton vert avec un tiret pour effectuer un zoom arrière, ou sur les flèches vertes pour les cartes adjacentes.


METAR-TAF: